sensor_id;sensor_type;location;lat;lon;timestamp;P1;durP1;ratioP1;P2;durP2;ratioP2
22388;SDS011;11362;48.102;11.620;2023-06-10T00:01:12;3.23;;;2.93;;
22388;SDS011;11362;48.102;11.620;2023-06-10T00:03:37;2.80;;;2.70;;
22388;SDS011;11362;48.102;11.620;2023-06-10T00:06:02;3.33;;;2.87;;
22388;SDS011;11362;48.102;11.620;2023-06-10T00:08:28;3.00;;;2.87;;
22388;SDS011;11362;48.102;11.620;2023-06-10T00:10:53;3.23;;;2.93;;
22388;SDS011;11362;48.102;11.620;2023-06-10T00:13:18;2.57;;;2.47;;
22388;SDS011;11362;48.102;11.620;2023-06-10T00:15:43;3.20;;;3.00;;
22388;SDS011;11362;48.102;11.620;2023-06-10T00:18:09;2.80;;;2.60;;
22388;SDS011;11362;48.102;11.620;2023-06-10T00:20:34;3.13;;;2.83;;
22388;SDS011;11362;48.102;11.620;2023-06-10T00:22:59;3.10;;;2.90;;
22388;SDS011;11362;48.102;11.620;2023-06-10T00:25:25;2.80;;;2.70;;
22388;SDS011;11362;48.102;11.620;2023-06-10T00:27:51;4.80;;;3.40;;
22388;SDS011;11362;48.102;11.620;2023-06-10T00:30:16;2.80;;;2.60;;
22388;SDS011;11362;48.102;11.620;2023-06-10T00:32:42;2.93;;;2.83;;
22388;SDS011;11362;48.102;11.620;2023-06-10T00:35:07;2.80;;;2.70;;
22388;SDS011;11362;48.102;11.620;2023-06-10T00:37:33;2.90;;;2.80;;
22388;SDS011;11362;48.102;11.620;2023-06-10T00:39:58;2.90;;;2.70;;
22388;SDS011;11362;48.102;11.620;2023-06-10T00:42:23;3.07;;;2.87;;
22388;SDS011;11362;48.102;11.620;2023-06-10T00:44:49;3.20;;;2.90;;
22388;SDS011;11362;48.102;11.620;2023-06-10T00:47:14;2.73;;;2.63;;
22388;SDS011;11362;48.102;11.620;2023-06-10T00:49:40;2.90;;;2.70;;
22388;SDS011;11362;48.102;11.620;2023-06-10T00:52:05;3.23;;;3.03;;
22388;SDS011;11362;48.102;11.620;2023-06-10T00:54:31;2.57;;;2.47;;
22388;SDS011;11362;48.102;11.620;2023-06-10T00:56:59;3.20;;;3.00;;
22388;SDS011;11362;48.102;11.620;2023-06-10T00:59:26;2.60;;;2.50;;
22388;SDS011;11362;48.102;11.620;2023-06-10T01:01:53;2.67;;;2.57;;
22388;SDS011;11362;48.102;11.620;2023-06-10T01:04:18;3.07;;;2.87;;
22388;SDS011;11362;48.102;11.620;2023-06-10T01:14:59;2.90;;;2.70;;
22388;SDS011;11362;48.102;11.620;2023-06-10T01:17:25;2.97;;;2.73;;
22388;SDS011;11362;48.102;11.620;2023-06-10T01:19:54;3.10;;;2.90;;
22388;SDS011;11362;48.102;11.620;2023-06-10T01:22:20;2.30;;;2.20;;
22388;SDS011;11362;48.102;11.620;2023-06-10T01:24:47;2.77;;;2.57;;
22388;SDS011;11362;48.102;11.620;2023-06-10T01:27:12;3.27;;;3.07;;
22388;SDS011;11362;48.102;11.620;2023-06-10T01:29:41;3.17;;;2.97;;
22388;SDS011;11362;48.102;11.620;2023-06-10T01:34:46;3.20;;;3.00;;
22388;SDS011;11362;48.102;11.620;2023-06-10T01:37:13;3.00;;;2.90;;
22388;SDS011;11362;48.102;11.620;2023-06-10T01:39:40;3.00;;;2.80;;
22388;SDS011;11362;48.102;11.620;2023-06-10T01:42:08;3.13;;;2.90;;
22388;SDS011;11362;48.102;11.620;2023-06-10T01:44:35;2.83;;;2.63;;
22388;SDS011;11362;48.102;11.620;2023-06-10T01:47:00;3.03;;;2.83;;
22388;SDS011;11362;48.102;11.620;2023-06-10T01:49:26;3.07;;;2.87;;
22388;SDS011;11362;48.102;11.620;2023-06-10T01:51:51;2.90;;;2.70;;
22388;SDS011;11362;48.102;11.620;2023-06-10T01:54:16;3.10;;;2.90;;
22388;SDS011;11362;48.102;11.620;2023-06-10T01:56:42;2.97;;;2.87;;
22388;SDS011;11362;48.102;11.620;2023-06-10T01:59:07;3.00;;;2.80;;
22388;SDS011;11362;48.102;11.620;2023-06-10T02:01:33;2.80;;;2.60;;
22388;SDS011;11362;48.102;11.620;2023-06-10T02:03:58;2.50;;;2.40;;
22388;SDS011;11362;48.102;11.620;2023-06-10T02:06:23;2.83;;;2.67;;
22388;SDS011;11362;48.102;11.620;2023-06-10T02:08:49;2.80;;;2.70;;
22388;SDS011;11362;48.102;11.620;2023-06-10T02:11:14;2.77;;;2.63;;
22388;SDS011;11362;48.102;11.620;2023-06-10T02:13:39;3.10;;;2.90;;
22388;SDS011;11362;48.102;11.620;2023-06-10T02:16:04;3.10;;;2.90;;
22388;SDS011;11362;48.102;11.620;2023-06-10T02:18:30;3.00;;;2.80;;
22388;SDS011;11362;48.102;11.620;2023-06-10T02:20:55;2.47;;;2.37;;
22388;SDS011;11362;48.102;11.620;2023-06-10T02:23:20;2.50;;;2.40;;
22388;SDS011;11362;48.102;11.620;2023-06-10T02:25:46;3.17;;;2.90;;
22388;SDS011;11362;48.102;11.620;2023-06-10T02:28:11;2.60;;;2.50;;
22388;SDS011;11362;48.102;11.620;2023-06-10T02:30:38;2.63;;;2.47;;
22388;SDS011;11362;48.102;11.620;2023-06-10T02:33:04;2.70;;;2.60;;
22388;SDS011;11362;48.102;11.620;2023-06-10T02:35:30;2.73;;;2.63;;
22388;SDS011;11362;48.102;11.620;2023-06-10T02:37:55;2.77;;;2.57;;
22388;SDS011;11362;48.102;11.620;2023-06-10T02:40:20;2.73;;;2.63;;
22388;SDS011;11362;48.102;11.620;2023-06-10T02:42:45;2.60;;;2.50;;
22388;SDS011;11362;48.102;11.620;2023-06-10T02:45:11;2.60;;;2.43;;
22388;SDS011;11362;48.102;11.620;2023-06-10T02:47:37;2.70;;;2.50;;
22388;SDS011;11362;48.102;11.620;2023-06-10T02:50:02;2.57;;;2.47;;
22388;SDS011;11362;48.102;11.620;2023-06-10T02:52:28;2.93;;;2.73;;
22388;SDS011;11362;48.102;11.620;2023-06-10T02:54:53;3.00;;;2.73;;
22388;SDS011;11362;48.102;11.620;2023-06-10T02:57:19;2.43;;;2.33;;
22388;SDS011;11362;48.102;11.620;2023-06-10T02:59:44;2.47;;;2.37;;
22388;SDS011;11362;48.102;11.620;2023-06-10T03:02:09;2.67;;;2.53;;
22388;SDS011;11362;48.102;11.620;2023-06-10T03:04:34;2.90;;;2.73;;
22388;SDS011;11362;48.102;11.620;2023-06-10T03:07:00;2.63;;;2.53;;
22388;SDS011;11362;48.102;11.620;2023-06-10T03:09:25;2.70;;;2.57;;
22388;SDS011;11362;48.102;11.620;2023-06-10T03:11:51;2.63;;;2.53;;
22388;SDS011;11362;48.102;11.620;2023-06-10T03:14:16;2.80;;;2.60;;
22388;SDS011;11362;48.102;11.620;2023-06-10T03:16:41;2.50;;;2.40;;
22388;SDS011;11362;48.102;11.620;2023-06-10T03:19:06;2.70;;;2.57;;
22388;SDS011;11362;48.102;11.620;2023-06-10T03:21:32;2.33;;;2.23;;
22388;SDS011;11362;48.102;11.620;2023-06-10T03:23:58;2.90;;;2.70;;
22388;SDS011;11362;48.102;11.620;2023-06-10T03:26:23;2.97;;;2.80;;
22388;SDS011;11362;48.102;11.620;2023-06-10T03:28:48;2.53;;;2.33;;
22388;SDS011;11362;48.102;11.620;2023-06-10T03:31:14;2.87;;;2.53;;
22388;SDS011;11362;48.102;11.620;2023-06-10T03:33:39;2.77;;;2.57;;
22388;SDS011;11362;48.102;11.620;2023-06-10T03:36:04;2.17;;;2.07;;
22388;SDS011;11362;48.102;11.620;2023-06-10T03:38:30;2.67;;;2.53;;
22388;SDS011;11362;48.102;11.620;2023-06-10T03:40:55;2.60;;;2.50;;
22388;SDS011;11362;48.102;11.620;2023-06-10T03:43:20;2.93;;;2.67;;
22388;SDS011;11362;48.102;11.620;2023-06-10T03:45:46;3.00;;;2.80;;
22388;SDS011;11362;48.102;11.620;2023-06-10T03:48:11;2.70;;;2.60;;
22388;SDS011;11362;48.102;11.620;2023-06-10T03:50:36;3.87;;;2.60;;
22388;SDS011;11362;48.102;11.620;2023-06-10T03:53:02;3.10;;;2.90;;
22388;SDS011;11362;48.102;11.620;2023-06-10T03:55:27;2.77;;;2.57;;
22388;SDS011;11362;48.102;11.620;2023-06-10T03:57:52;2.70;;;2.60;;
22388;SDS011;11362;48.102;11.620;2023-06-10T04:00:18;2.90;;;2.70;;
22388;SDS011;11362;48.102;11.620;2023-06-10T04:02:43;2.63;;;2.53;;
22388;SDS011;11362;48.102;11.620;2023-06-10T04:05:09;2.40;;;2.20;;
22388;SDS011;11362;48.102;11.620;2023-06-10T04:07:34;2.70;;;2.60;;
22388;SDS011;11362;48.102;11.620;2023-06-10T04:09:59;2.57;;;2.37;;
22388;SDS011;11362;48.102;11.620;2023-06-10T04:12:25;2.67;;;2.50;;
22388;SDS011;11362;48.102;11.620;2023-06-10T04:14:50;2.50;;;2.40;;
22388;SDS011;11362;48.102;11.620;2023-06-10T04:17:15;2.70;;;2.60;;
22388;SDS011;11362;48.102;11.620;2023-06-10T04:19:40;2.70;;;2.50;;
22388;SDS011;11362;48.102;11.620;2023-06-10T04:22:06;2.60;;;2.50;;
22388;SDS011;11362;48.102;11.620;2023-06-10T04:24:31;2.50;;;2.40;;
22388;SDS011;11362;48.102;11.620;2023-06-10T04:26:56;2.67;;;2.47;;
22388;SDS011;11362;48.102;11.620;2023-06-10T04:29:22;3.10;;;2.90;;
22388;SDS011;11362;48.102;11.620;2023-06-10T04:31:47;2.30;;;2.20;;
22388;SDS011;11362;48.102;11.620;2023-06-10T04:34:12;2.50;;;2.40;;
22388;SDS011;11362;48.102;11.620;2023-06-10T04:36:38;2.83;;;2.63;;
22388;SDS011;11362;48.102;11.620;2023-06-10T04:39:03;2.70;;;2.50;;
22388;SDS011;11362;48.102;11.620;2023-06-10T04:41:28;2.63;;;2.50;;
22388;SDS011;11362;48.102;11.620;2023-06-10T04:43:54;2.37;;;2.27;;
22388;SDS011;11362;48.102;11.620;2023-06-10T04:46:19;2.80;;;2.70;;
22388;SDS011;11362;48.102;11.620;2023-06-10T04:48:44;2.60;;;2.50;;
22388;SDS011;11362;48.102;11.620;2023-06-10T04:51:09;2.87;;;2.67;;
22388;SDS011;11362;48.102;11.620;2023-06-10T04:53:35;2.70;;;2.60;;
22388;SDS011;11362;48.102;11.620;2023-06-10T04:56:00;2.40;;;2.30;;
22388;SDS011;11362;48.102;11.620;2023-06-10T04:58:25;2.20;;;2.10;;
22388;SDS011;11362;48.102;11.620;2023-06-10T05:00:51;2.63;;;2.53;;
22388;SDS011;11362;48.102;11.620;2023-06-10T05:03:16;2.67;;;2.50;;
22388;SDS011;11362;48.102;11.620;2023-06-10T05:05:41;2.73;;;2.57;;
22388;SDS011;11362;48.102;11.620;2023-06-10T05:08:06;2.97;;;2.77;;
22388;SDS011;11362;48.102;11.620;2023-06-10T05:10:32;2.53;;;2.43;;
22388;SDS011;11362;48.102;11.620;2023-06-10T05:12:57;2.70;;;2.60;;
22388;SDS011;11362;48.102;11.620;2023-06-10T05:15:23;2.70;;;2.60;;
22388;SDS011;11362;48.102;11.620;2023-06-10T05:17:48;2.63;;;2.50;;
22388;SDS011;11362;48.102;11.620;2023-06-10T05:20:13;2.47;;;2.37;;
22388;SDS011;11362;48.102;11.620;2023-06-10T05:22:39;2.50;;;2.40;;
22388;SDS011;11362;48.102;11.620;2023-06-10T05:25:04;2.70;;;2.60;;
22388;SDS011;11362;48.102;11.620;2023-06-10T05:27:30;3.07;;;2.87;;
22388;SDS011;11362;48.102;11.620;2023-06-10T05:29:55;2.70;;;2.60;;
22388;SDS011;11362;48.102;11.620;2023-06-10T05:32:20;2.83;;;2.73;;
22388;SDS011;11362;48.102;11.620;2023-06-10T05:34:46;3.03;;;2.83;;
22388;SDS011;11362;48.102;11.620;2023-06-10T05:37:12;3.10;;;2.90;;
22388;SDS011;11362;48.102;11.620;2023-06-10T05:39:37;2.97;;;2.77;;
22388;SDS011;11362;48.102;11.620;2023-06-10T05:42:04;2.60;;;2.50;;
22388;SDS011;11362;48.102;11.620;2023-06-10T05:44:30;2.90;;;2.77;;
22388;SDS011;11362;48.102;11.620;2023-06-10T05:46:55;2.87;;;2.77;;
22388;SDS011;11362;48.102;11.620;2023-06-10T05:49:21;2.83;;;2.63;;
22388;SDS011;11362;48.102;11.620;2023-06-10T05:51:46;2.60;;;2.50;;
22388;SDS011;11362;48.102;11.620;2023-06-10T05:54:11;2.87;;;2.77;;
22388;SDS011;11362;48.102;11.620;2023-06-10T05:56:36;3.00;;;2.80;;
22388;SDS011;11362;48.102;11.620;2023-06-10T05:59:02;2.57;;;2.47;;
22388;SDS011;11362;48.102;11.620;2023-06-10T06:01:27;2.80;;;2.70;;
22388;SDS011;11362;48.102;11.620;2023-06-10T06:03:52;2.70;;;2.60;;
22388;SDS011;11362;48.102;11.620;2023-06-10T06:06:18;2.73;;;2.53;;
22388;SDS011;11362;48.102;11.620;2023-06-10T06:08:43;3.20;;;3.00;;
22388;SDS011;11362;48.102;11.620;2023-06-10T06:11:08;3.10;;;2.80;;
22388;SDS011;11362;48.102;11.620;2023-06-10T06:13:34;3.27;;;3.07;;
22388;SDS011;11362;48.102;11.620;2023-06-10T06:15:59;2.63;;;2.53;;
22388;SDS011;11362;48.102;11.620;2023-06-10T06:18:24;2.73;;;2.63;;
22388;SDS011;11362;48.102;11.620;2023-06-10T06:20:49;2.90;;;2.80;;
22388;SDS011;11362;48.102;11.620;2023-06-10T06:23:15;3.13;;;2.90;;
22388;SDS011;11362;48.102;11.620;2023-06-10T06:25:40;2.97;;;2.77;;
22388;SDS011;11362;48.102;11.620;2023-06-10T06:28:06;2.87;;;2.77;;
22388;SDS011;11362;48.102;11.620;2023-06-10T06:30:32;2.97;;;2.80;;
22388;SDS011;11362;48.102;11.620;2023-06-10T06:32:57;3.23;;;3.07;;
22388;SDS011;11362;48.102;11.620;2023-06-10T06:35:22;2.93;;;2.80;;
22388;SDS011;11362;48.102;11.620;2023-06-10T06:37:47;2.77;;;2.67;;
22388;SDS011;11362;48.102;11.620;2023-06-10T06:40:13;3.13;;;2.97;;
22388;SDS011;11362;48.102;11.620;2023-06-10T06:42:38;2.77;;;2.60;;
22388;SDS011;11362;48.102;11.620;2023-06-10T06:45:03;2.80;;;2.70;;
22388;SDS011;11362;48.102;11.620;2023-06-10T06:47:29;3.33;;;3.10;;
22388;SDS011;11362;48.102;11.620;2023-06-10T06:49:54;3.33;;;3.10;;
22388;SDS011;11362;48.102;11.620;2023-06-10T06:52:19;3.03;;;2.83;;
22388;SDS011;11362;48.102;11.620;2023-06-10T06:54:45;2.87;;;2.67;;
22388;SDS011;11362;48.102;11.620;2023-06-10T06:57:10;3.00;;;2.90;;
22388;SDS011;11362;48.102;11.620;2023-06-10T06:59:35;3.00;;;2.80;;
22388;SDS011;11362;48.102;11.620;2023-06-10T07:02:01;3.00;;;2.90;;
22388;SDS011;11362;48.102;11.620;2023-06-10T07:04:27;3.17;;;2.87;;
22388;SDS011;11362;48.102;11.620;2023-06-10T07:06:52;2.87;;;2.70;;
22388;SDS011;11362;48.102;11.620;2023-06-10T07:09:18;3.00;;;2.80;;
22388;SDS011;11362;48.102;11.620;2023-06-10T07:11:43;3.17;;;2.97;;
22388;SDS011;11362;48.102;11.620;2023-06-10T07:14:08;2.87;;;2.77;;
22388;SDS011;11362;48.102;11.620;2023-06-10T07:16:34;3.00;;;2.80;;
22388;SDS011;11362;48.102;11.620;2023-06-10T07:18:59;3.10;;;2.90;;
22388;SDS011;11362;48.102;11.620;2023-06-10T07:21:24;3.20;;;3.00;;
22388;SDS011;11362;48.102;11.620;2023-06-10T07:23:49;3.20;;;3.00;;
22388;SDS011;11362;48.102;11.620;2023-06-10T07:26:15;3.50;;;3.30;;
22388;SDS011;11362;48.102;11.620;2023-06-10T07:28:40;2.97;;;2.77;;
22388;SDS011;11362;48.102;11.620;2023-06-10T07:31:06;3.03;;;2.90;;
22388;SDS011;11362;48.102;11.620;2023-06-10T07:33:32;3.10;;;2.90;;
22388;SDS011;11362;48.102;11.620;2023-06-10T07:35:57;3.27;;;3.10;;
22388;SDS011;11362;48.102;11.620;2023-06-10T07:38:24;3.30;;;3.10;;
22388;SDS011;11362;48.102;11.620;2023-06-10T07:40:50;3.27;;;3.03;;
22388;SDS011;11362;48.102;11.620;2023-06-10T07:43:15;3.00;;;2.80;;
22388;SDS011;11362;48.102;11.620;2023-06-10T07:45:40;3.00;;;2.90;;
22388;SDS011;11362;48.102;11.620;2023-06-10T07:48:06;3.07;;;2.93;;
22388;SDS011;11362;48.102;11.620;2023-06-10T07:50:31;3.33;;;3.13;;
22388;SDS011;11362;48.102;11.620;2023-06-10T07:52:57;3.13;;;2.93;;
22388;SDS011;11362;48.102;11.620;2023-06-10T07:55:22;2.77;;;2.67;;
22388;SDS011;11362;48.102;11.620;2023-06-10T07:57:47;3.10;;;3.00;;
22388;SDS011;11362;48.102;11.620;2023-06-10T08:00:13;2.90;;;2.80;;
22388;SDS011;11362;48.102;11.620;2023-06-10T08:02:38;3.40;;;3.20;;
22388;SDS011;11362;48.102;11.620;2023-06-10T08:05:04;3.03;;;2.83;;
22388;SDS011;11362;48.102;11.620;2023-06-10T08:07:29;3.77;;;3.47;;
22388;SDS011;11362;48.102;11.620;2023-06-10T08:09:55;3.17;;;3.00;;
22388;SDS011;11362;48.102;11.620;2023-06-10T08:12:20;3.13;;;3.00;;
22388;SDS011;11362;48.102;11.620;2023-06-10T08:14:45;3.10;;;2.90;;
22388;SDS011;11362;48.102;11.620;2023-06-10T08:17:10;2.97;;;2.87;;
22388;SDS011;11362;48.102;11.620;2023-06-10T08:19:36;3.13;;;2.97;;
22388;SDS011;11362;48.102;11.620;2023-06-10T08:22:01;3.40;;;3.20;;
22388;SDS011;11362;48.102;11.620;2023-06-10T08:24:26;3.07;;;2.97;;
22388;SDS011;11362;48.102;11.620;2023-06-10T08:26:52;3.37;;;3.17;;
22388;SDS011;11362;48.102;11.620;2023-06-10T08:29:17;2.73;;;2.63;;
22388;SDS011;11362;48.102;11.620;2023-06-10T08:31:42;3.70;;;3.47;;
22388;SDS011;11362;48.102;11.620;2023-06-10T08:34:08;3.00;;;2.80;;
22388;SDS011;11362;48.102;11.620;2023-06-10T08:36:34;3.00;;;2.90;;
22388;SDS011;11362;48.102;11.620;2023-06-10T08:38:59;3.03;;;2.93;;
22388;SDS011;11362;48.102;11.620;2023-06-10T08:41:25;3.30;;;3.10;;
22388;SDS011;11362;48.102;11.620;2023-06-10T08:43:54;3.27;;;3.07;;
22388;SDS011;11362;48.102;11.620;2023-06-10T08:46:28;2.97;;;2.77;;
22388;SDS011;11362;48.102;11.620;2023-06-10T08:48:56;3.30;;;3.10;;
22388;SDS011;11362;48.102;11.620;2023-06-10T08:51:27;3.13;;;2.90;;
22388;SDS011;11362;48.102;11.620;2023-06-10T08:53:58;3.37;;;3.17;;
22388;SDS011;11362;48.102;11.620;2023-06-10T08:56:37;3.47;;;3.27;;
22388;SDS011;11362;48.102;11.620;2023-06-10T08:59:05;3.03;;;2.83;;
22388;SDS011;11362;48.102;11.620;2023-06-10T09:01:30;3.20;;;3.03;;
22388;SDS011;11362;48.102;11.620;2023-06-10T09:03:56;3.13;;;2.93;;
22388;SDS011;11362;48.102;11.620;2023-06-10T09:06:23;2.83;;;2.73;;
22388;SDS011;11362;48.102;11.620;2023-06-10T09:08:50;3.13;;;2.93;;
22388;SDS011;11362;48.102;11.620;2023-06-10T09:11:15;3.00;;;2.90;;
22388;SDS011;11362;48.102;11.620;2023-06-10T09:13:41;2.87;;;2.77;;
22388;SDS011;11362;48.102;11.620;2023-06-10T09:16:06;2.87;;;2.77;;
22388;SDS011;11362;48.102;11.620;2023-06-10T09:18:31;3.30;;;3.10;;
22388;SDS011;11362;48.102;11.620;2023-06-10T09:20:57;3.10;;;2.90;;
22388;SDS011;11362;48.102;11.620;2023-06-10T09:23:22;2.87;;;2.77;;
22388;SDS011;11362;48.102;11.620;2023-06-10T09:25:51;2.93;;;2.83;;
22388;SDS011;11362;48.102;11.620;2023-06-10T09:28:21;3.40;;;3.20;;
22388;SDS011;11362;48.102;11.620;2023-06-10T09:30:46;3.10;;;3.00;;
22388;SDS011;11362;48.102;11.620;2023-06-10T09:33:12;2.57;;;2.47;;
22388;SDS011;11362;48.102;11.620;2023-06-10T09:35:44;3.10;;;3.00;;
22388;SDS011;11362;48.102;11.620;2023-06-10T09:38:14;3.47;;;3.27;;
22388;SDS011;11362;48.102;11.620;2023-06-10T09:40:50;3.00;;;2.80;;
22388;SDS011;11362;48.102;11.620;2023-06-10T09:43:17;2.90;;;2.80;;
22388;SDS011;11362;48.102;11.620;2023-06-10T09:45:43;2.90;;;2.80;;
22388;SDS011;11362;48.102;11.620;2023-06-10T09:48:08;2.53;;;2.43;;
22388;SDS011;11362;48.102;11.620;2023-06-10T09:50:34;3.00;;;2.90;;
22388;SDS011;11362;48.102;11.620;2023-06-10T09:52:59;3.40;;;3.20;;
22388;SDS011;11362;48.102;11.620;2023-06-10T09:55:24;2.80;;;2.70;;
22388;SDS011;11362;48.102;11.620;2023-06-10T09:57:52;2.80;;;2.70;;
22388;SDS011;11362;48.102;11.620;2023-06-10T10:00:18;2.87;;;2.77;;
22388;SDS011;11362;48.102;11.620;2023-06-10T10:02:45;2.60;;;2.50;;
22388;SDS011;11362;48.102;11.620;2023-06-10T10:05:19;2.73;;;2.57;;
22388;SDS011;11362;48.102;11.620;2023-06-10T10:07:46;3.07;;;2.97;;
22388;SDS011;11362;48.102;11.620;2023-06-10T10:10:12;3.30;;;3.10;;
22388;SDS011;11362;48.102;11.620;2023-06-10T10:12:39;2.77;;;2.67;;
22388;SDS011;11362;48.102;11.620;2023-06-10T10:15:06;2.70;;;2.60;;
22388;SDS011;11362;48.102;11.620;2023-06-10T10:17:33;2.80;;;2.70;;
22388;SDS011;11362;48.102;11.620;2023-06-10T10:20:03;3.03;;;2.83;;
22388;SDS011;11362;48.102;11.620;2023-06-10T10:22:30;3.03;;;2.83;;
22388;SDS011;11362;48.102;11.620;2023-06-10T10:25:09;2.87;;;2.77;;
22388;SDS011;11362;48.102;11.620;2023-06-10T10:27:38;2.60;;;2.50;;
22388;SDS011;11362;48.102;11.620;2023-06-10T10:30:09;2.50;;;2.40;;
22388;SDS011;11362;48.102;11.620;2023-06-10T10:32:40;3.03;;;2.87;;
22388;SDS011;11362;48.102;11.620;2023-06-10T10:35:17;2.43;;;2.33;;
22388;SDS011;11362;48.102;11.620;2023-06-10T10:37:46;2.83;;;2.63;;
22388;SDS011;11362;48.102;11.620;2023-06-10T10:40:12;3.30;;;3.10;;
22388;SDS011;11362;48.102;11.620;2023-06-10T10:42:37;2.90;;;2.70;;
22388;SDS011;11362;48.102;11.620;2023-06-10T10:45:03;2.97;;;2.77;;
22388;SDS011;11362;48.102;11.620;2023-06-10T10:47:30;2.90;;;2.80;;
22388;SDS011;11362;48.102;11.620;2023-06-10T10:49:56;2.57;;;2.47;;
22388;SDS011;11362;48.102;11.620;2023-06-10T10:52:21;3.23;;;3.03;;
22388;SDS011;11362;48.102;11.620;2023-06-10T10:54:46;2.37;;;2.27;;
22388;SDS011;11362;48.102;11.620;2023-06-10T10:59:51;3.20;;;3.00;;
22388;SDS011;11362;48.102;11.620;2023-06-10T11:02:18;2.57;;;2.43;;
22388;SDS011;11362;48.102;11.620;2023-06-10T11:04:56;2.60;;;2.50;;
22388;SDS011;11362;48.102;11.620;2023-06-10T11:07:22;2.37;;;2.27;;
22388;SDS011;11362;48.102;11.620;2023-06-10T11:10:08;2.80;;;2.70;;
22388;SDS011;11362;48.102;11.620;2023-06-10T11:12:55;2.30;;;2.17;;
22388;SDS011;11362;48.102;11.620;2023-06-10T11:15:20;2.40;;;2.30;;
22388;SDS011;11362;48.102;11.620;2023-06-10T11:20:41;2.50;;;2.40;;
22388;SDS011;11362;48.102;11.620;2023-06-10T11:33:46;2.63;;;2.47;;
22388;SDS011;11362;48.102;11.620;2023-06-10T11:36:12;2.47;;;2.37;;
22388;SDS011;11362;48.102;11.620;2023-06-10T11:38:38;2.80;;;2.70;;
22388;SDS011;11362;48.102;11.620;2023-06-10T11:41:03;2.47;;;2.37;;
22388;SDS011;11362;48.102;11.620;2023-06-10T11:43:29;3.00;;;2.80;;
22388;SDS011;11362;48.102;11.620;2023-06-10T11:45:55;2.40;;;2.30;;
22388;SDS011;11362;48.102;11.620;2023-06-10T11:48:20;2.83;;;2.63;;
22388;SDS011;11362;48.102;11.620;2023-06-10T11:50:45;2.70;;;2.60;;
22388;SDS011;11362;48.102;11.620;2023-06-10T11:53:11;2.50;;;2.40;;
22388;SDS011;11362;48.102;11.620;2023-06-10T11:55:42;2.50;;;2.40;;
22388;SDS011;11362;48.102;11.620;2023-06-10T11:58:20;2.10;;;2.00;;
22388;SDS011;11362;48.102;11.620;2023-06-10T12:00:50;2.43;;;2.33;;
22388;SDS011;11362;48.102;11.620;2023-06-10T12:03:17;2.57;;;2.47;;
22388;SDS011;11362;48.102;11.620;2023-06-10T12:06:04;2.43;;;2.13;;
22388;SDS011;11362;48.102;11.620;2023-06-10T12:08:30;2.43;;;2.33;;
22388;SDS011;11362;48.102;11.620;2023-06-10T12:10:56;2.30;;;2.20;;
22388;SDS011;11362;48.102;11.620;2023-06-10T12:13:22;2.17;;;2.07;;
22388;SDS011;11362;48.102;11.620;2023-06-10T12:15:49;2.47;;;2.37;;
22388;SDS011;11362;48.102;11.620;2023-06-10T12:20:43;1.97;;;1.87;;
22388;SDS011;11362;48.102;11.620;2023-06-10T12:23:09;2.13;;;2.03;;
22388;SDS011;11362;48.102;11.620;2023-06-10T12:25:35;2.10;;;2.00;;
22388;SDS011;11362;48.102;11.620;2023-06-10T12:28:00;2.67;;;2.57;;
22388;SDS011;11362;48.102;11.620;2023-06-10T12:30:26;1.97;;;1.90;;
22388;SDS011;11362;48.102;11.620;2023-06-10T12:32:52;2.23;;;2.13;;
22388;SDS011;11362;48.102;11.620;2023-06-10T12:35:19;2.37;;;2.27;;
22388;SDS011;11362;48.102;11.620;2023-06-10T12:38:01;2.33;;;2.23;;
22388;SDS011;11362;48.102;11.620;2023-06-10T12:42:57;2.17;;;2.07;;
22388;SDS011;11362;48.102;11.620;2023-06-10T12:45:27;2.00;;;1.90;;
22388;SDS011;11362;48.102;11.620;2023-06-10T12:50:38;2.50;;;2.33;;
22388;SDS011;11362;48.102;11.620;2023-06-10T12:53:04;2.43;;;2.33;;
22388;SDS011;11362;48.102;11.620;2023-06-10T12:55:30;1.97;;;1.87;;
22388;SDS011;11362;48.102;11.620;2023-06-10T12:57:56;2.50;;;2.40;;
22388;SDS011;11362;48.102;11.620;2023-06-10T13:00:21;2.23;;;2.13;;
22388;SDS011;11362;48.102;11.620;2023-06-10T13:02:48;2.27;;;2.17;;
22388;SDS011;11362;48.102;11.620;2023-06-10T13:05:13;2.57;;;2.13;;
22388;SDS011;11362;48.102;11.620;2023-06-10T13:07:39;2.27;;;2.17;;
22388;SDS011;11362;48.102;11.620;2023-06-10T13:10:04;2.30;;;2.20;;
22388;SDS011;11362;48.102;11.620;2023-06-10T13:12:30;2.30;;;2.20;;
22388;SDS011;11362;48.102;11.620;2023-06-10T13:14:55;2.20;;;2.10;;
22388;SDS011;11362;48.102;11.620;2023-06-10T13:17:21;2.50;;;2.40;;
22388;SDS011;11362;48.102;11.620;2023-06-10T13:19:46;2.43;;;2.10;;
22388;SDS011;11362;48.102;11.620;2023-06-10T13:22:11;2.20;;;2.10;;
22388;SDS011;11362;48.102;11.620;2023-06-10T13:24:39;2.53;;;2.43;;
22388;SDS011;11362;48.102;11.620;2023-06-10T13:27:04;2.60;;;2.50;;
22388;SDS011;11362;48.102;11.620;2023-06-10T13:29:30;2.33;;;2.23;;
22388;SDS011;11362;48.102;11.620;2023-06-10T13:31:55;2.50;;;2.40;;
22388;SDS011;11362;48.102;11.620;2023-06-10T13:34:20;2.20;;;2.10;;
22388;SDS011;11362;48.102;11.620;2023-06-10T13:36:46;2.00;;;1.90;;
22388;SDS011;11362;48.102;11.620;2023-06-10T13:39:11;2.20;;;2.10;;
22388;SDS011;11362;48.102;11.620;2023-06-10T13:41:36;2.10;;;2.00;;
22388;SDS011;11362;48.102;11.620;2023-06-10T13:44:01;2.00;;;1.90;;
22388;SDS011;11362;48.102;11.620;2023-06-10T13:46:27;2.10;;;2.00;;
22388;SDS011;11362;48.102;11.620;2023-06-10T13:48:52;2.33;;;2.23;;
22388;SDS011;11362;48.102;11.620;2023-06-10T13:51:17;2.17;;;2.07;;
22388;SDS011;11362;48.102;11.620;2023-06-10T13:53:43;2.00;;;1.90;;
22388;SDS011;11362;48.102;11.620;2023-06-10T13:56:08;1.80;;;1.80;;
22388;SDS011;11362;48.102;11.620;2023-06-10T13:58:33;2.33;;;2.23;;
22388;SDS011;11362;48.102;11.620;2023-06-10T14:00:59;2.17;;;2.07;;
22388;SDS011;11362;48.102;11.620;2023-06-10T14:03:24;2.40;;;2.30;;
22388;SDS011;11362;48.102;11.620;2023-06-10T14:05:49;2.23;;;2.13;;
22388;SDS011;11362;48.102;11.620;2023-06-10T14:08:15;2.30;;;2.20;;
22388;SDS011;11362;48.102;11.620;2023-06-10T14:10:40;2.37;;;2.27;;
22388;SDS011;11362;48.102;11.620;2023-06-10T14:13:05;2.20;;;2.10;;
22388;SDS011;11362;48.102;11.620;2023-06-10T14:15:30;2.50;;;2.40;;
22388;SDS011;11362;48.102;11.620;2023-06-10T14:17:56;2.20;;;2.10;;
22388;SDS011;11362;48.102;11.620;2023-06-10T14:20:21;2.40;;;2.30;;
22388;SDS011;11362;48.102;11.620;2023-06-10T14:22:46;2.27;;;2.17;;
22388;SDS011;11362;48.102;11.620;2023-06-10T14:25:11;2.17;;;2.07;;
22388;SDS011;11362;48.102;11.620;2023-06-10T14:27:37;1.97;;;1.87;;
22388;SDS011;11362;48.102;11.620;2023-06-10T14:30:02;2.20;;;2.10;;
22388;SDS011;11362;48.102;11.620;2023-06-10T14:32:28;2.10;;;2.00;;
22388;SDS011;11362;48.102;11.620;2023-06-10T14:34:53;2.37;;;2.27;;
22388;SDS011;11362;48.102;11.620;2023-06-10T14:37:18;2.30;;;2.20;;
22388;SDS011;11362;48.102;11.620;2023-06-10T14:39:44;2.10;;;2.00;;
22388;SDS011;11362;48.102;11.620;2023-06-10T14:42:09;1.63;;;1.63;;
22388;SDS011;11362;48.102;11.620;2023-06-10T14:44:34;2.10;;;2.00;;
22388;SDS011;11362;48.102;11.620;2023-06-10T14:47:00;2.17;;;2.07;;
22388;SDS011;11362;48.102;11.620;2023-06-10T14:49:25;2.00;;;1.90;;
22388;SDS011;11362;48.102;11.620;2023-06-10T14:51:50;2.27;;;2.17;;
22388;SDS011;11362;48.102;11.620;2023-06-10T14:54:16;2.20;;;2.10;;
22388;SDS011;11362;48.102;11.620;2023-06-10T14:56:41;2.07;;;1.97;;
22388;SDS011;11362;48.102;11.620;2023-06-10T14:59:06;2.37;;;1.77;;
22388;SDS011;11362;48.102;11.620;2023-06-10T15:01:31;2.30;;;2.20;;